Plano, Texas
Current Conditions -  °F | °C
As of 2:15 AM on Sunday 21 Dec 2014 (Local Time) from KADS Reporting Station
Overcast Overcast  
Wind Chill: 46°   Ceiling: 800
Heat Index: 48°   Visibility: 7mi
Dew Point: 48°   Wind: 6mph
Humidity: 100%   Direction: 160°SSE
Pressure: 30.16"   Gusts: NA
Location:  33.02°N, 96.7°W
Report Text: KADS 210815Z AUTO 16005KT 7SM BKN008 OVC030 09/09 A3016 RMK AO2 T00900090
Loading
Personal Weather Stations






























Interactive Weather Map New forecast layout! Learn more

10-Day Weather Forecast

Advertisements
Track Severe Weather on mobile